Time;durP1;ratioP1;P1;durP2;ratioP2;P2;SDS_P1;SDS_P2;PMS_P1;PMS_P2;Temp;Humidity;BMP_temperature;BMP_pressure;BME280_temperature;BME280_humidity;BME280_pressure;Samples;Min_cycle;Max_cycle;Signal;HPM_P1;HPM_P2
2022/11/23 00:02:06;;;;;;;;;;;;;;;6.27;99.63;97830.72;10177419;23;19924;-78
2022/11/23 00:06:07;;;;;;;;;;;;;;;6.27;99.76;97836.72;10178690;23;20383;-78
2022/11/23 00:10:09;;;;;;;;;;;;;;;6.28;99.76;97838.47;10178599;23;20028;-77
2022/11/23 00:14:10;;;;;;;;;;;;;;;6.33;99.49;97841.81;10230187;23;19921;-77
2022/11/23 00:18:12;;;;;;;;;;;;;;;6.35;99.63;97839.22;10195556;23;19924;-77
2022/11/23 00:22:13;;;;;;;;;;;;;;;6.38;99.82;97849.47;10177499;23;20012;-77
2022/11/23 00:26:15;;;;;;;;;;;;;;;6.40;99.94;97841.72;10179084;23;19924;-77
2022/11/23 00:30:17;;;;;;;;;;;;;;;6.40;99.90;97845.16;10197400;23;19924;-77
2022/11/23 00:34:18;;;;;;;;;;;;;;;6.42;99.61;97846.00;10202555;22;19924;-77
2022/11/23 00:38:19;;;;;;;;;;;;;;;6.43;99.56;97854.56;10203617;23;19955;-77
2022/11/23 00:42:21;;;;;;;;;;;;;;;6.46;99.68;97850.22;10179602;23;20288;-77
2022/11/23 00:46:24;;;;;;;;;;;;;;;6.46;99.46;97851.94;10173633;23;19990;-77
2022/11/23 00:50:25;;;;;;;;;;;;;;;6.47;99.11;97851.97;10205214;23;19978;-77
2022/11/23 00:54:26;;;;;;;;;;;;;;;6.47;98.99;97849.38;10177969;23;19924;-77
2022/11/23 00:58:28;;;;;;;;;;;;;;;6.46;98.55;97847.66;10179845;23;19920;-77
2022/11/23 01:02:29;;;;;;;;;;;;;;;6.46;98.66;97857.97;10177329;23;19966;-77
2022/11/23 01:06:32;;;;;;;;;;;;;;;6.47;98.07;97848.53;10206150;23;19955;-77
2022/11/23 01:10:33;;;;;;;;;;;;;;;6.49;97.84;97849.38;10179828;23;19951;-77
2022/11/23 01:14:35;;;;;;;;;;;;;;;6.51;97.51;97845.03;10228917;23;19964;-78
2022/11/23 01:18:36;;;;;;;;;;;;;;;6.53;96.98;97846.72;10192716;23;19974;-78
2022/11/23 01:22:38;;;;;;;;;;;;;;;6.54;97.08;97857.88;10201675;23;19920;-78
2022/11/23 01:26:40;;;;;;;;;;;;;;;6.54;97.13;97865.63;10201504;23;19977;-78
2022/11/23 01:30:41;;;;;;;;;;;;;;;6.55;96.71;97863.00;10193026;23;19928;-78
2022/11/23 01:34:43;;;;;;;;;;;;;;;6.55;96.65;97865.59;10199143;23;20279;-78
2022/11/23 01:38:45;;;;;;;;;;;;;;;6.58;96.68;97862.13;10201168;23;19994;-78
2022/11/23 01:42:54;;;;;;;;;;;;;;;6.59;96.91;97866.41;10225499;23;19984;-78
2022/11/23 01:46:59;;;;;;;;;;;;;;;6.56;96.92;97866.44;10194493;23;20383;-78
2022/11/23 01:51:02;;;;;;;;;;;;;;;6.56;96.86;97861.28;10176307;23;20275;-78
2022/11/23 01:55:04;;;;;;;;;;;;;;;6.56;96.78;97867.28;10228666;23;19989;-78
2022/11/23 01:59:12;;;;;;;;;;;;;;;6.61;97.20;97864.66;10203080;23;20381;-78
2022/11/23 02:03:13;;;;;;;;;;;;;;;6.62;97.16;97863.78;10192940;23;19923;-78
2022/11/23 02:07:15;;;;;;;;;;;;;;;6.65;97.00;97868.91;10200371;23;19983;-78
2022/11/23 02:11:17;;;;;;;;;;;;;;;6.63;97.23;97863.75;10173652;23;19925;-77
2022/11/23 02:15:18;;;;;;;;;;;;;;;6.66;97.34;97868.03;10170097;23;19962;-77
2022/11/23 02:19:28;;;;;;;;;;;;;;;6.65;97.10;97856.88;10175805;23;19944;-78
2022/11/23 02:23:36;;;;;;;;;;;;;;;6.64;97.10;97856.88;10226388;23;19935;-77
2022/11/23 02:27:38;;;;;;;;;;;;;;;6.67;97.06;97854.28;10177414;23;20685;-78
2022/11/23 02:31:46;;;;;;;;;;;;;;;6.65;97.44;97851.72;10221124;23;19944;-77
2022/11/23 02:35:49;;;;;;;;;;;;;;;6.65;97.24;97854.28;10225569;23;20011;-77
2022/11/23 02:39:52;;;;;;;;;;;;;;;6.63;96.92;97848.28;10174432;23;20000;-77
2022/11/23 02:43:55;;;;;;;;;;;;;;;6.65;96.98;97846.56;10173446;23;20015;-78
2022/11/23 02:47:57;;;;;;;;;;;;;;;6.63;96.85;97853.44;10191613;23;19999;-78
2022/11/23 02:51:58;;;;;;;;;;;;;;;6.61;97.33;97849.19;10199319;23;19958;-77
2022/11/23 02:56:00;;;;;;;;;;;;;;;6.61;97.30;97859.50;10200016;23;19962;-77
2022/11/23 03:00:03;;;;;;;;;;;;;;;6.58;96.96;97847.50;10173982;23;19924;-77
2022/11/23 03:04:04;;;;;;;;;;;;;;;6.59;96.91;97848.34;10200448;23;19931;-77
2022/11/23 03:08:06;;;;;;;;;;;;;;;6.61;97.28;97846.59;10203167;23;19972;-77
2022/11/23 03:12:07;;;;;;;;;;;;;;;6.62;97.12;97853.47;10176927;23;20006;-76
2022/11/23 03:16:09;;;;;;;;;;;;;;;6.58;97.25;97852.66;10197641;23;19948;-77
2022/11/23 03:20:10;;;;;;;;;;;;;;;6.60;97.23;97856.06;10228981;23;19960;-76
2022/11/23 03:24:12;;;;;;;;;;;;;;;6.61;97.23;97851.75;10202311;23;19986;-76
2022/11/23 03:28:13;;;;;;;;;;;;;;;6.61;97.17;97844.03;10203851;23;19975;-76
2022/11/23 03:32:14;;;;;;;;;;;;;;;6.60;97.15;97850.06;10220740;23;19978;-76
2022/11/23 03:36:15;;;;;;;;;;;;;;;6.56;97.13;97848.41;10202879;23;20560;-76
2022/11/23 03:40:17;;;;;;;;;;;;;;;6.57;96.93;97855.25;10203150;23;19947;-77
2022/11/23 03:44:18;;;;;;;;;;;;;;;6.59;96.84;97850.94;10202580;23;19920;-76
2022/11/23 03:48:19;;;;;;;;;;;;;;;6.58;96.91;97847.50;10221985;23;19955;-76
2022/11/23 03:52:21;;;;;;;;;;;;;;;6.57;96.89;97840.63;10202281;23;20289;-76
2022/11/23 03:56:23;;;;;;;;;;;;;;;6.58;97.00;97838.91;10179278;23;19924;-76
2022/11/23 04:00:25;;;;;;;;;;;;;;;6.59;97.00;97843.19;10198609;23;19924;-77
2022/11/23 04:04:27;;;;;;;;;;;;;;;6.60;96.98;97838.00;10177019;23;20015;-77
2022/11/23 04:08:28;;;;;;;;;;;;;;;6.57;96.61;97839.78;10176427;23;20520;-77
2022/11/23 04:12:30;;;;;;;;;;;;;;;6.53;96.48;97836.41;10199043;23;20007;-77
2022/11/23 04:16:32;;;;;;;;;;;;;;;6.46;96.13;97831.31;10168955;23;20054;-77
2022/11/23 04:20:33;;;;;;;;;;;;;;;6.42;96.52;97839.97;10175366;23;19970;-77
2022/11/23 04:24:34;;;;;;;;;;;;;;;6.40;96.48;97834.84;10198880;23;20003;-77
2022/11/23 04:28:36;;;;;;;;;;;;;;;6.38;96.66;97836.59;10200285;23;19967;-77
2022/11/23 04:32:37;;;;;;;;;;;;;;;6.36;96.77;97835.75;10191784;23;20022;-77
2022/11/23 04:36:39;;;;;;;;;;;;;;;6.39;97.12;97847.75;10178515;23;20003;-77
2022/11/23 04:40:40;;;;;;;;;;;;;;;6.38;97.19;97854.66;10201956;23;19928;-76
2022/11/23 04:44:41;;;;;;;;;;;;;;;6.39;96.91;97861.50;10177790;23;20010;-77
2022/11/23 04:48:43;;;;;;;;;;;;;;;6.38;96.83;97857.22;10172601;23;20326;-77
2022/11/23 04:52:44;;;;;;;;;;;;;;;6.35;96.06;97857.25;10199623;23;19928;-77
2022/11/23 04:56:45;;;;;;;;;;;;;;;6.34;95.72;97859.00;10204428;23;20162;-78
2022/11/23 05:00:47;;;;;;;;;;;;;;;6.33;95.81;97861.59;10197498;23;19951;-77
2022/11/23 05:04:49;;;;;;;;;;;;;;;6.31;96.01;97866.75;10229548;23;19940;-77
2022/11/23 05:08:50;;;;;;;;;;;;;;;6.29;95.84;97876.25;10203145;23;19970;-77
2022/11/23 05:12:52;;;;;;;;;;;;;;;6.27;95.56;97882.25;10202969;23;19986;-78
2022/11/23 05:16:53;;;;;;;;;;;;;;;6.27;95.86;97885.69;10198031;23;19951;-77
2022/11/23 05:20:54;;;;;;;;;;;;;;;6.20;95.22;97883.22;10203494;23;20767;-78
2022/11/23 05:24:56;;;;;;;;;;;;;;;6.25;95.84;97887.44;10231366;23;19928;-78
2022/11/23 05:28:57;;;;;;;;;;;;;;;6.26;95.40;97871.09;10204200;23;19931;-78
2022/11/23 05:33:00;;;;;;;;;;;;;;;6.26;95.46;97876.25;10196897;23;19924;-77
2022/11/23 05:37:02;;;;;;;;;;;;;;;6.27;95.38;97882.25;10203426;23;19977;-77
2022/11/23 05:41:03;;;;;;;;;;;;;;;6.26;95.17;97870.25;10202564;23;19960;-77
2022/11/23 05:45:05;;;;;;;;;;;;;;;6.25;95.19;97873.69;10223214;23;19975;-77
2022/11/23 05:49:11;;;;;;;;;;;;;;;6.28;95.42;97873.66;10205426;23;20255;-76
2022/11/23 05:53:13;;;;;;;;;;;;;;;6.24;95.04;97862.53;10177015;23;19924;-77
2022/11/23 05:57:14;;;;;;;;;;;;;;;6.22;95.49;97858.28;10179129;23;20268;-77
2022/11/23 06:01:16;;;;;;;;;;;;;;;6.18;95.19;97864.34;10221344;23;20412;-77
2022/11/23 06:05:17;;;;;;;;;;;;;;;6.15;95.11;97864.38;10177107;23;19955;-77
2022/11/23 06:09:18;;;;;;;;;;;;;;;6.15;95.15;97861.81;10202123;23;20010;-77
2022/11/23 06:13:20;;;;;;;;;;;;;;;6.09;95.47;97847.25;10176785;23;19952;-78
2022/11/23 06:17:21;;;;;;;;;;;;;;;6.07;94.57;97852.41;10231524;23;19924;-78
2022/11/23 06:21:22;;;;;;;;;;;;;;;6.01;94.58;97862.81;10176717;23;19924;-78
2022/11/23 06:25:24;;;;;;;;;;;;;;;5.97;94.95;97868.88;10202834;23;20007;-78
2022/11/23 06:29:25;;;;;;;;;;;;;;;5.95;94.78;97869.75;10202880;23;19952;-77
2022/11/23 06:33:27;;;;;;;;;;;;;;;5.96;95.25;97863.72;10168287;23;19948;-78
2022/11/23 06:37:28;;;;;;;;;;;;;;;5.96;95.47;97872.31;10202893;23;19920;-77
2022/11/23 06:41:29;;;;;;;;;;;;;;;5.97;95.55;97874.03;10176215;23;20446;-77
2022/11/23 06:45:32;;;;;;;;;;;;;;;5.99;96.06;97872.28;10194766;23;20596;-77
2022/11/23 06:49:34;;;;;;;;;;;;;;;5.94;95.20;97874.06;10202278;23;19924;-77
2022/11/23 06:53:35;;;;;;;;;;;;;;;5.96;95.39;97868.88;10172102;23;19928;-77
2022/11/23 06:57:37;;;;;;;;;;;;;;;5.92;95.09;97880.91;10203764;23;19939;-79
2022/11/23 07:01:38;;;;;;;;;;;;;;;5.91;95.57;97873.22;10197665;23;19972;-79
2022/11/23 07:05:39;;;;;;;;;;;;;;;5.92;95.37;97878.34;10204572;23;20003;-79
2022/11/23 07:09:41;;;;;;;;;;;;;;;5.91;95.09;97880.94;10234352;23;19999;-79
2022/11/23 07:13:42;;;;;;;;;;;;;;;5.96;95.42;97879.19;10209416;23;20353;-80
2022/11/23 07:17:43;;;;;;;;;;;;;;;5.97;95.53;97879.16;10228807;23;19927;-80
2022/11/23 07:21:45;;;;;;;;;;;;;;;5.98;94.96;97885.19;10211067;23;19921;-81
2022/11/23 07:25:46;;;;;;;;;;;;;;;5.96;94.58;97892.06;10218942;23;19928;-81
2022/11/23 07:29:47;;;;;;;;;;;;;;;5.92;94.29;97891.22;10217385;23;20010;-81
2022/11/23 07:33:52;;;;;;;;;;;;;;;5.97;95.12;97889.47;10202185;23;19928;-81
2022/11/23 07:38:08;;;;;;;;;;;;;;;6.02;95.61;97889.41;10183514;23;19974;-78
2022/11/23 07:42:09;;;;;;;;;;;;;;;6.06;95.30;97893.66;10204428;23;19935;-80
2022/11/23 07:46:33;;;;;;;;;;;;;;;6.16;95.00;97887.56;10199673;23;19934;-79
2022/11/23 07:50:36;;;;;;;;;;;;;;;6.27;94.76;97888.25;10198660;23;20343;-79
2022/11/23 07:54:37;;;;;;;;;;;;;;;6.35;94.17;97891.63;10203478;23;19935;-79
2022/11/23 07:58:39;;;;;;;;;;;;;;;6.38;93.19;97893.31;10201935;23;20002;-78
2022/11/23 08:02:40;;;;;;;;;;;;;;;6.50;93.25;97893.16;10170741;23;19920;-78
2022/11/23 08:07:02;;;;;;;;;;;;;;;6.64;91.86;97898.13;10182615;23;20674;-79
2022/11/23 08:11:05;;;;;;;;;;;;;;;6.81;91.41;97898.75;10182079;23;20593;-78
2022/11/23 08:15:06;;;;;;;;;;;;;;;7.02;90.04;97895.06;10204747;23;19920;-79
2022/11/23 08:19:08;;;;;;;;;;;;;;;7.30;89.67;97892.91;10206530;23;19991;-79
2022/11/23 08:23:09;;;;;;;;;;;;;;;7.58;88.36;97896.75;10179143;23;20295;-79
2022/11/23 08:27:11;;;;;;;;;;;;;;;7.79;86.22;97892.97;10208024;23;19920;-79
2022/11/23 08:31:13;;;;;;;;;;;;;;;8.02;86.10;97902.03;10198964;23;20015;-80
2022/11/23 08:35:16;;;;;;;;;;;;;;;8.21;83.85;97899.94;10186209;23;19960;-81
2022/11/23 08:39:18;;;;;;;;;;;;;;;8.15;79.97;97894.03;10207944;23;20483;-80
2022/11/23 08:43:19;;;;;;;;;;;;;;;8.28;80.29;97907.56;10181978;23;20697;-80
2022/11/23 08:47:21;;;;;;;;;;;;;;;8.38;79.12;97905.69;10177234;23;19924;-80
2022/11/23 08:51:23;;;;;;;;;;;;;;;8.62;79.75;97900.03;10207619;23;19970;-79
2022/11/23 08:55:24;;;;;;;;;;;;;;;8.66;77.72;97898.22;10204339;23;19924;-80
2022/11/23 08:59:26;;;;;;;;;;;;;;;8.71;78.06;97899.81;10183357;23;19924;-80
2022/11/23 09:03:28;;;;;;;;;;;;;;;8.99;79.16;97896.66;10199158;23;19928;-80
2022/11/23 09:07:30;;;;;;;;;;;;;;;9.03;75.90;97890.53;10184609;23;19943;-80
2022/11/23 09:11:32;;;;;;;;;;;;;;;9.12;76.90;97892.03;10208231;23;20307;-80
2022/11/23 09:15:33;;;;;;;;;;;;;;;9.17;75.74;97896.25;10199809;23;19959;-80
2022/11/23 09:19:35;;;;;;;;;;;;;;;9.21;74.61;97895.28;10209071;23;19928;-81
2022/11/23 09:23:36;;;;;;;;;;;;;;;9.41;74.97;97893.97;10232942;23;19920;-80
2022/11/23 09:27:37;;;;;;;;;;;;;;;9.58;73.39;97886.63;10205233;23;19986;-81
2022/11/23 09:31:40;;;;;;;;;;;;;;;9.72;75.03;97881.97;10177042;23;19928;-81
2022/11/23 09:35:41;;;;;;;;;;;;;;;9.81;74.67;97883.47;10228867;23;19964;-81
2022/11/23 09:39:44;;;;;;;;;;;;;;;9.78;72.81;97884.38;10182901;23;19924;-81
2022/11/23 09:43:45;;;;;;;;;;;;;;;9.81;73.32;97880.88;10205863;23;19920;-82
2022/11/23 09:47:50;;;;;;;;;;;;;;;9.76;72.42;97875.81;10202237;23;20555;-79
2022/11/23 09:51:54;;;;;;;;;;;;;;;9.73;72.93;97865.53;10207689;23;19932;-80
2022/11/23 09:55:56;;;;;;;;;;;;;;;9.63;73.78;97858.84;10184422;23;19986;-83
2022/11/23 10:00:07;;;;;;;;;;;;;;;9.53;74.42;97849.63;10207649;23;19931;-84
2022/11/23 10:04:16;;;;;;;;;;;;;;;9.36;74.68;97848.31;10213038;23;19920;-80
2022/11/23 10:08:30;;;;;;;;;;;;;;;9.25;75.29;97839.94;10206778;23;19970;-78
2022/11/23 10:12:32;;;;;;;;;;;;;;;9.16;74.47;97835.00;10229804;23;20375;-81
2022/11/23 10:16:42;;;;;;;;;;;;;;;9.11;74.37;97829.03;10199620;23;19928;-80
2022/11/23 10:20:47;;;;;;;;;;;;;;;9.04;74.96;97825.75;10230443;23;19935;-80
2022/11/23 10:24:50;;;;;;;;;;;;;;;8.92;72.75;97820.84;10228530;23;19979;-78
2022/11/23 10:28:53;;;;;;;;;;;;;;;8.91;74.48;97808.81;10202866;23;20007;-79
2022/11/23 10:32:54;;;;;;;;;;;;;;;8.91;74.00;97813.13;10218532;23;19924;-80
2022/11/23 10:36:56;;;;;;;;;;;;;;;8.92;73.67;97820.84;10203628;23;19932;-77
2022/11/23 10:41:05;;;;;;;;;;;;;;;8.96;73.89;97811.28;10200294;23;20295;-78
2022/11/23 10:45:17;;;;;;;;;;;;;;;9.01;74.88;97810.31;10220919;23;19966;-79
2022/11/23 10:49:20;;;;;;;;;;;;;;;9.09;75.41;97808.38;10177821;23;19928;-79
2022/11/23 10:53:24;;;;;;;;;;;;;;;9.11;74.07;97799.72;10203275;23;19982;-81
2022/11/23 10:57:27;;;;;;;;;;;;;;;9.16;74.23;97797.88;10205652;23;19924;-82
2022/11/23 11:01:29;;;;;;;;;;;;;;;9.20;72.63;97791.75;10172055;23;19928;-80
2022/11/23 11:05:37;;;;;;;;;;;;;;;9.26;73.46;97797.59;10231425;23;20010;-80
2022/11/23 11:09:59;;;;;;;;;;;;;;;9.27;71.71;97791.53;10211954;23;19979;-82
2022/11/23 11:14:13;;;;;;;;;;;;;;;9.37;72.01;97784.41;10205250;23;19920;-81
2022/11/23 11:18:17;;;;;;;;;;;;;;;9.42;71.60;97779.94;10177660;23;19986;-81
2022/11/23 11:22:26;;;;;;;;;;;;;;;9.47;70.72;97788.44;10181939;23;19924;-82
2022/11/23 11:26:29;;;;;;;;;;;;;;;9.51;69.28;97777.09;10182477;23;20010;-81
2022/11/23 11:30:37;;;;;;;;;;;;;;;9.55;69.33;97770.97;10178703;23;19924;-84
2022/11/23 11:34:57;;;;;;;;;;;;;;;9.62;70.54;97771.66;10186754;23;19928;-81
2022/11/23 11:39:01;;;;;;;;;;;;;;;9.69;69.83;97767.97;10185859;23;20034;-82
2022/11/23 11:43:22;;;;;;;;;;;;;;;9.76;68.98;97755.72;10183895;23;19939;-79
2022/11/23 11:47:54;;;;;;;;;;;;;;;9.82;68.35;97758.13;10178322;23;19951;-79
2022/11/23 11:52:07;;;;;;;;;;;;;;;9.87;66.87;97744.16;10180780;23;19921;-82
2022/11/23 11:56:11;;;;;;;;;;;;;;;9.95;67.20;97736.16;10210378;23;19995;-82
2022/11/23 12:00:16;;;;;;;;;;;;;;;10.04;67.96;97724.69;10230724;23;19935;-82
2022/11/23 12:04:34;;;;;;;;;;;;;;;10.07;67.51;97717.69;10208651;23;20459;-82
2022/11/23 12:08:50;;;;;;;;;;;;;;;10.15;65.74;97730.41;10210663;23;19924;-79
2022/11/23 12:12:51;;;;;;;;;;;;;;;10.12;63.06;97704.56;10210651;23;19924;-83
2022/11/23 12:17:08;;;;;;;;;;;;;;;10.20;63.72;97697.41;10205664;23;19921;-81
2022/11/23 12:21:45;;;;;;;;;;;;;;;10.24;62.42;97670.53;10191648;23;19928;-81
2022/11/23 12:26:07;;;;;;;;;;;;;;;10.32;63.60;97672.88;10212262;23;19924;-81
2022/11/23 12:30:20;;;;;;;;;;;;;;;10.44;65.26;97670.75;10181951;23;20539;-79
2022/11/23 12:34:41;;;;;;;;;;;;;;;10.45;61.36;97679.38;10209997;23;19967;-81
2022/11/23 12:38:48;;;;;;;;;;;;;;;10.53;60.52;97678.22;10208965;23;19951;-77
2022/11/23 12:42:52;;;;;;;;;;;;;;;10.64;61.44;97670.13;10233555;23;19967;-81
2022/11/23 12:47:14;;;;;;;;;;;;;;;10.66;60.65;97657.09;10208113;23;19924;-80
2022/11/23 12:51:30;;;;;;;;;;;;;;;10.62;59.66;97653.75;10182108;23;19955;-79
2022/11/23 12:55:47;;;;;;;;;;;;;;;10.62;60.07;97647.72;10183397;23;19924;-80
2022/11/23 12:59:52;;;;;;;;;;;;;;;10.58;58.64;97652.97;10181954;23;20693;-79
2022/11/23 13:04:12;;;;;;;;;;;;;;;10.57;59.02;97650.44;10206841;23;19920;-78
2022/11/23 13:08:28;;;;;;;;;;;;;;;10.54;59.09;97633.22;10208231;23;20221;-84
2022/11/23 13:12:53;;;;;;;;;;;;;;;10.67;61.10;97630.22;10234085;23;19924;-81
2022/11/23 13:17:06;;;;;;;;;;;;;;;10.81;62.72;97621.09;10193230;23;19952;-80
2022/11/23 13:21:11;;;;;;;;;;;;;;;10.93;60.89;97605.97;10207093;23;20537;-82
2022/11/23 13:25:12;;;;;;;;;;;;;;;10.93;61.81;97604.22;10208061;23;19924;-80
2022/11/23 13:29:33;;;;;;;;;;;;;;;10.94;61.38;97605.91;10183634;23;19959;-79
2022/11/23 13:33:37;;;;;;;;;;;;;;;10.89;60.52;97598.28;10175411;23;20425;-79
2022/11/23 13:38:11;;;;;;;;;;;;;;;10.87;59.49;97614.81;10208182;23;20136;-79
2022/11/23 13:42:13;;;;;;;;;;;;;;;10.79;59.51;97589.13;10190142;23;19924;-81
2022/11/23 13:46:22;;;;;;;;;;;;;;;10.76;61.32;97583.19;10184371;23;19920;-79
2022/11/23 13:50:24;;;;;;;;;;;;;;;10.68;61.82;97591.25;10183832;23;19946;-80
2022/11/23 13:54:26;;;;;;;;;;;;;;;10.63;61.25;97587.97;10183000;23;19920;-79
2022/11/23 13:58:27;;;;;;;;;;;;;;;10.58;62.62;97582.06;10207944;23;19978;-79
2022/11/23 14:02:29;;;;;;;;;;;;;;;10.51;62.80;97580.56;10182204;23;19940;-80
2022/11/23 14:06:41;;;;;;;;;;;;;;;10.46;62.74;97572.94;10183315;23;19928;-80
2022/11/23 14:10:42;;;;;;;;;;;;;;;10.40;62.95;97577.47;10182896;23;19931;-80
2022/11/23 14:15:06;;;;;;;;;;;;;;;10.36;61.84;97579.31;10207905;23;20260;-81
2022/11/23 14:19:30;;;;;;;;;;;;;;;10.33;63.20;97587.22;10183431;23;19935;-81
2022/11/23 14:23:50;;;;;;;;;;;;;;;10.30;63.81;97602.88;10207399;23;20327;-82
2022/11/23 14:27:52;;;;;;;;;;;;;;;10.22;63.59;97603.09;10184134;23;20223;-81
2022/11/23 14:32:11;;;;;;;;;;;;;;;10.18;64.95;97608.41;10199048;23;20003;-80
2022/11/23 14:36:16;;;;;;;;;;;;;;;10.11;65.34;97609.50;10185011;23;19924;-83
2022/11/23 14:40:26;;;;;;;;;;;;;;;10.02;66.80;97630.53;10210603;23;19982;-81
2022/11/23 14:44:28;;;;;;;;;;;;;;;9.87;69.64;97645.66;10231549;23;20208;-79
2022/11/23 14:48:35;;;;;;;;;;;;;;;9.69;72.26;97647.06;10169162;23;19928;-77
2022/11/23 14:52:37;;;;;;;;;;;;;;;9.46;76.54;97659.78;10194040;23;19974;-78
2022/11/23 14:56:42;;;;;;;;;;;;;;;9.30;77.88;97666.28;10198196;23;20043;-77
2022/11/23 15:00:44;;;;;;;;;;;;;;;9.11;79.90;97691.81;10164276;23;19966;-77
2022/11/23 15:05:07;;;;;;;;;;;;;;;8.96;81.03;97698.22;10221378;23;19928;-78
2022/11/23 15:09:15;;;;;;;;;;;;;;;8.82;82.55;97709.84;10196850;23;19924;-78
2022/11/23 15:13:24;;;;;;;;;;;;;;;8.66;83.40;97707.63;10195222;23;19958;-79
2022/11/23 15:17:26;;;;;;;;;;;;;;;8.51;85.05;97712.28;10166484;23;19928;-77
2022/11/23 15:21:28;;;;;;;;;;;;;;;8.42;86.39;97706.44;10196690;23;20016;-78
2022/11/23 15:25:30;;;;;;;;;;;;;;;8.34;88.21;97708.34;10173944;23;19951;-78
2022/11/23 15:29:33;;;;;;;;;;;;;;;8.32;89.53;97696.31;10225963;23;19947;-78
2022/11/23 15:33:35;;;;;;;;;;;;;;;8.26;89.18;97705.06;10164651;23;20477;-77
2022/11/23 15:37:47;;;;;;;;;;;;;;;8.18;89.32;97714.72;10168239;23;19956;-77
2022/11/23 15:41:51;;;;;;;;;;;;;;;8.08;90.23;97714.09;10171998;23;19928;-77
2022/11/23 15:45:53;;;;;;;;;;;;;;;8.06;90.71;97722.72;10168005;23;19947;-75
2022/11/23 15:49:58;;;;;;;;;;;;;;;8.02;90.57;97727.13;10196481;23;20319;-76
2022/11/23 15:54:00;;;;;;;;;;;;;;;7.97;91.88;97736.72;10171469;23;19924;-76
2022/11/23 15:58:06;;;;;;;;;;;;;;;7.93;92.35;97734.22;10223262;23;20003;-77
2022/11/23 16:02:19;;;;;;;;;;;;;;;7.85;93.03;97732.63;10189580;23;19924;-77
2022/11/23 16:06:21;;;;;;;;;;;;;;;7.83;93.09;97742.16;10225761;23;20385;-77
2022/11/23 16:10:29;;;;;;;;;;;;;;;7.85;94.04;97749.88;10175447;23;19928;-78
2022/11/23 16:14:34;;;;;;;;;;;;;;;7.85;94.10;97755.88;10199420;23;19924;-78
2022/11/23 16:18:41;;;;;;;;;;;;;;;7.80;94.29;97757.72;10192237;23;20283;-78
2022/11/23 16:22:47;;;;;;;;;;;;;;;7.79;94.19;97765.50;10174373;23;20589;-77
2022/11/23 16:26:48;;;;;;;;;;;;;;;7.69;95.14;97775.16;10199357;23;19924;-77
2022/11/23 16:30:50;;;;;;;;;;;;;;;7.69;95.55;97775.16;10201610;23;19981;-77
2022/11/23 16:34:52;;;;;;;;;;;;;;;7.68;95.95;97780.34;10202814;23;20307;-78
2022/11/23 16:38:56;;;;;;;;;;;;;;;7.67;96.05;97786.41;10230471;23;19986;-78
2022/11/23 16:43:03;;;;;;;;;;;;;;;7.68;96.22;97806.19;10202372;23;19931;-77
2022/11/23 16:47:21;;;;;;;;;;;;;;;7.62;96.83;97803.72;10194119;23;19935;-77
2022/11/23 16:51:22;;;;;;;;;;;;;;;7.58;97.47;97811.53;10176392;23;19924;-77
2022/11/23 16:55:24;;;;;;;;;;;;;;;7.56;97.52;97820.19;10177206;23;19955;-77
2022/11/23 16:59:25;;;;;;;;;;;;;;;7.56;97.91;97831.38;10227011;23;19951;-77
2022/11/23 17:03:26;;;;;;;;;;;;;;;7.58;98.10;97834.78;10168197;23;19920;-77
2022/11/23 17:07:28;;;;;;;;;;;;;;;7.63;98.99;97839.00;10201210;23;19985;-77
2022/11/23 17:11:29;;;;;;;;;;;;;;;7.67;98.67;97844.06;10199888;23;19978;-77
2022/11/23 17:15:31;;;;;;;;;;;;;;;7.69;98.70;97864.72;10218925;23;20709;-77
2022/11/23 17:19:32;;;;;;;;;;;;;;;7.72;98.83;97881.03;10199464;23;20323;-77
2022/11/23 17:23:35;;;;;;;;;;;;;;;7.78;98.54;97898.16;10173560;23;20003;-77
2022/11/23 17:27:40;;;;;;;;;;;;;;;7.80;98.68;97917.91;10197645;23;20365;-77
2022/11/23 17:31:44;;;;;;;;;;;;;;;7.84;98.59;97922.13;10165183;23;19924;-78
2022/11/23 17:35:45;;;;;;;;;;;;;;;7.88;98.54;97943.59;10171374;23;20308;-77
2022/11/23 17:39:47;;;;;;;;;;;;;;;7.92;98.79;97958.22;10176988;23;20300;-77
2022/11/23 17:43:49;;;;;;;;;;;;;;;7.94;98.97;97958.19;10150819;23;19928;-78
2022/11/23 17:47:51;;;;;;;;;;;;;;;7.95;98.86;97975.38;10169617;23;19952;-77
2022/11/23 17:51:54;;;;;;;;;;;;;;;7.94;99.42;97994.34;10151095;23;19932;-77
2022/11/23 17:55:55;;;;;;;;;;;;;;;7.95;99.22;98007.25;10176851;23;19956;-78
2022/11/23 17:59:57;;;;;;;;;;;;;;;7.96;98.94;98011.53;10152015;23;20336;-77
2022/11/23 18:04:03;;;;;;;;;;;;;;;7.91;98.96;98022.84;10148849;23;19929;-77
2022/11/23 18:08:05;;;;;;;;;;;;;;;7.86;99.11;98038.41;10176967;23;20003;-77
2022/11/23 18:12:07;;;;;;;;;;;;;;;7.81;98.78;98047.94;10174598;23;19941;-77
2022/11/23 18:16:08;;;;;;;;;;;;;;;7.75;99.15;98053.22;10168484;23;20291;-77
2022/11/23 18:20:10;;;;;;;;;;;;;;;7.69;98.74;98064.47;10151797;23;19982;-77
2022/11/23 18:24:11;;;;;;;;;;;;;;;7.67;99.10;98081.72;10176266;23;19924;-78
2022/11/23 18:28:17;;;;;;;;;;;;;;;7.69;99.17;98089.47;10151685;23;20007;-78
2022/11/23 18:32:18;;;;;;;;;;;;;;;7.73;99.16;98101.50;10145329;23;20288;-78
2022/11/23 18:36:20;;;;;;;;;;;;;;;7.78;99.42;98110.00;10151645;23;19952;-78
2022/11/23 18:40:21;;;;;;;;;;;;;;;7.81;99.84;98117.72;10176832;23;19929;-78
2022/11/23 18:44:23;;;;;;;;;;;;;;;7.86;100.00;98131.41;10170565;23;20004;-78
2022/11/23 18:48:24;;;;;;;;;;;;;;;7.88;100.00;98130.53;10166100;23;19975;-78
2022/11/23 18:52:26;;;;;;;;;;;;;;;7.92;100.00;98139.13;10172033;23;19926;-78
2022/11/23 18:56:27;;;;;;;;;;;;;;;7.96;100.00;98148.53;10173192;23;19921;-78
2022/11/23 19:00:29;;;;;;;;;;;;;;;7.99;100.00;98153.66;10141644;23;19925;-78
2022/11/23 19:04:31;;;;;;;;;;;;;;;8.01;100.00;98163.97;10149948;23;19959;-78
2022/11/23 19:08:37;;;;;;;;;;;;;;;7.98;99.97;98171.75;10175260;23;20185;-78
2022/11/23 19:12:38;;;;;;;;;;;;;;;7.93;99.61;98189.06;10148701;23;20415;-77
2022/11/23 19:16:40;;;;;;;;;;;;;;;7.85;99.44;98202.94;10174751;23;19967;-77
2022/11/23 19:20:41;;;;;;;;;;;;;;;7.76;99.49;98210.81;10176166;23;20359;-77
2022/11/23 19:24:42;;;;;;;;;;;;;;;7.70;99.05;98213.44;10174478;23;20347;-78
2022/11/23 19:28:44;;;;;;;;;;;;;;;7.64;99.12;98230.75;10175933;23;19986;-77
2022/11/23 19:32:45;;;;;;;;;;;;;;;7.59;99.79;98230.81;10142359;23;19982;-77
2022/11/23 19:36:47;;;;;;;;;;;;;;;7.61;99.88;98243.72;10173861;23;19925;-77
2022/11/23 19:40:52;;;;;;;;;;;;;;;7.60;100.00;98244.59;10174920;23;19933;-77
2022/11/23 19:44:54;;;;;;;;;;;;;;;7.62;100.00;98256.59;10149668;23;19924;-77
2022/11/23 19:48:56;;;;;;;;;;;;;;;7.67;100.00;98266.88;10141508;23;20312;-77
2022/11/23 19:52:57;;;;;;;;;;;;;;;7.72;100.00;98270.25;10173316;23;19936;-77
2022/11/23 19:57:13;;;;;;;;;;;;;;;7.75;100.00;98278.00;10152510;23;19984;-77
2022/11/23 20:01:15;;;;;;;;;;;;;;;7.77;100.00;98284.00;10142498;23;20420;-78
2022/11/23 20:05:17;;;;;;;;;;;;;;;7.78;100.00;98291.75;10176864;23;19928;-78
2022/11/23 20:09:19;;;;;;;;;;;;;;;7.76;100.00;98292.63;10154110;23;19932;-78
2022/11/23 20:13:21;;;;;;;;;;;;;;;7.73;100.00;98300.44;10177876;23;20340;-78
2022/11/23 20:17:23;;;;;;;;;;;;;;;7.67;100.00;98297.88;10172056;23;20332;-77
2022/11/23 20:21:25;;;;;;;;;;;;;;;7.62;100.00;98308.28;10177850;23;19925;-78
2022/11/23 20:25:26;;;;;;;;;;;;;;;7.55;100.00;98309.22;10178003;23;20450;-78
2022/11/23 20:29:27;;;;;;;;;;;;;;;7.44;100.00;98314.47;10153013;23;19986;-78
2022/11/23 20:33:29;;;;;;;;;;;;;;;7.36;100.00;98328.31;10168686;23;19952;-77
2022/11/23 20:37:33;;;;;;;;;;;;;;;7.31;100.00;98335.25;10228645;23;20453;-78
2022/11/23 20:41:36;;;;;;;;;;;;;;;7.26;100.00;98338.72;10225839;23;19920;-78
2022/11/23 20:45:37;;;;;;;;;;;;;;;7.27;100.00;98345.59;10203022;23;20019;-77
2022/11/23 20:49:39;;;;;;;;;;;;;;;7.30;100.00;98354.19;10179280;23;19924;-77
2022/11/23 20:53:44;;;;;;;;;;;;;;;7.38;100.00;98355.84;10227850;23;19956;-77
2022/11/23 20:57:46;;;;;;;;;;;;;;;7.45;100.00;98354.94;10202407;23;20011;-77
2022/11/23 21:01:47;;;;;;;;;;;;;;;7.47;100.00;98366.09;10194072;23;19920;-77
2022/11/23 21:05:49;;;;;;;;;;;;;;;7.49;100.00;98377.25;10205057;23;20337;-77
2022/11/23 21:09:50;;;;;;;;;;;;;;;7.48;100.00;98380.72;10181209;23;19936;-78